createdAt,value
2018-11-21T00:01:36.400Z,45.11
2018-11-21T00:06:39.676Z,45.21
2018-11-21T00:11:42.956Z,45.13
2018-11-21T00:16:46.240Z,45.13
2018-11-21T00:21:49.524Z,45.16
2018-11-21T00:26:52.807Z,45.20
2018-11-21T00:31:56.096Z,45.10
2018-11-21T00:36:59.426Z,45.17
2018-11-21T00:42:02.703Z,45.16
2018-11-21T00:47:06.285Z,45.17
2018-11-21T00:52:09.563Z,45.21
2018-11-21T00:57:12.846Z,45.18
2018-11-21T01:02:16.152Z,45.19
2018-11-21T01:07:19.423Z,45.12
2018-11-21T01:12:22.717Z,45.29
2018-11-21T01:17:25.995Z,45.31
2018-11-21T01:22:29.297Z,45.14
2018-11-21T01:27:32.584Z,45.17
2018-11-21T01:32:35.861Z,45.33
2018-11-21T01:37:39.152Z,45.29
2018-11-21T01:42:42.428Z,45.29
2018-11-21T01:47:45.704Z,45.21
2018-11-21T01:52:49.020Z,45.15
2018-11-21T01:57:52.297Z,45.22
2018-11-21T02:02:55.597Z,45.18
2018-11-21T02:07:58.892Z,45.28
2018-11-21T02:13:02.174Z,45.25
2018-11-21T02:18:05.559Z,45.21
2018-11-21T02:23:08.842Z,45.24
2018-11-21T02:28:12.128Z,45.29
2018-11-21T02:33:15.421Z,45.21
2018-11-21T02:38:18.750Z,45.23
2018-11-21T02:43:22.052Z,45.21
2018-11-21T02:48:25.507Z,45.13
2018-11-21T02:53:28.795Z,45.16
2018-11-21T02:58:32.087Z,45.12
2018-11-21T03:03:35.402Z,45.09
2018-11-21T03:08:38.702Z,45.15
2018-11-21T03:13:42.012Z,45.08
2018-11-21T03:18:45.303Z,45.11
2018-11-21T03:23:48.612Z,45.03
2018-11-21T03:28:51.907Z,45.05
2018-11-21T03:33:57.851Z,45.04
2018-11-21T03:38:58.561Z,45.00
2018-11-21T03:44:01.879Z,45.00
2018-11-21T03:49:05.352Z,45.01
2018-11-21T03:54:08.944Z,44.98
2018-11-21T03:59:12.229Z,44.92
2018-11-21T04:04:15.521Z,44.82
2018-11-21T04:09:18.800Z,44.90
2018-11-21T04:14:22.183Z,44.96
2018-11-21T04:19:25.462Z,44.78
2018-11-21T04:24:28.814Z,44.76
2018-11-21T04:29:32.029Z,44.76
2018-11-21T04:34:35.313Z,44.78
2018-11-21T04:39:38.597Z,44.84
2018-11-21T04:44:41.891Z,44.79
2018-11-21T04:49:45.174Z,44.79
2018-11-21T04:54:48.458Z,44.78
2018-11-21T04:59:51.753Z,44.78
2018-11-21T05:04:55.046Z,44.67
2018-11-21T05:09:58.337Z,44.72
2018-11-21T05:15:01.669Z,44.62
2018-11-21T05:20:05.942Z,44.58
2018-11-21T05:25:10.392Z,44.53
2018-11-21T05:30:14.102Z,44.60
2018-11-21T05:35:17.429Z,44.57
2018-11-21T05:40:20.709Z,44.49
2018-11-21T05:45:25.517Z,44.51
2018-11-21T05:50:28.810Z,44.51
2018-11-21T05:55:32.746Z,44.37
2018-11-21T06:00:36.501Z,44.35
2018-11-21T06:05:39.962Z,44.23
2018-11-21T06:10:43.304Z,44.24
2018-11-21T06:15:46.588Z,44.22
2018-11-21T06:20:49.962Z,44.26
2018-11-21T06:25:53.306Z,44.14
2018-11-21T06:30:56.586Z,44.21
2018-11-21T06:35:59.885Z,44.17
2018-11-21T06:41:03.374Z,44.15
2018-11-21T06:46:06.667Z,44.07
2018-11-21T06:51:10.476Z,44.02
2018-11-21T06:56:13.841Z,44.00
2018-11-21T07:01:17.729Z,43.97
2018-11-21T07:06:21.678Z,44.04
2018-11-21T07:11:24.965Z,44.02
2018-11-21T07:16:28.459Z,44.02
2018-11-21T07:21:32.445Z,44.00
2018-11-21T07:26:35.733Z,43.93
2018-11-21T07:31:39.327Z,43.99
2018-11-21T07:36:48.377Z,44.02
2018-11-21T07:41:51.696Z,43.99
2018-11-21T07:46:55.171Z,43.96
2018-11-21T07:51:58.453Z,43.93
2018-11-21T07:57:29.034Z,43.93
2018-11-21T08:02:36.255Z,43.92
2018-11-21T08:07:44.148Z,43.87
2018-11-21T08:13:05.326Z,34.01
2018-11-21T08:18:27.356Z,32.84
2018-11-21T08:23:55.498Z,33.72
2018-11-21T08:28:53.906Z,35.51
2018-11-21T08:33:57.223Z,36.46
2018-11-21T08:39:00.560Z,37.06
2018-11-21T08:44:03.857Z,37.46
2018-11-21T08:49:07.139Z,38.03
2018-11-21T08:54:10.455Z,38.37
2018-11-21T08:59:13.773Z,38.62
2018-11-21T09:04:17.420Z,38.97
2018-11-21T09:09:20.940Z,39.26
2018-11-21T09:14:24.232Z,39.52
2018-11-21T09:19:27.993Z,39.83
2018-11-21T09:24:31.345Z,40.02
2018-11-21T09:29:34.730Z,40.15
2018-11-21T09:34:38.220Z,40.33
2018-11-21T09:39:41.722Z,40.50
2018-11-21T09:44:45.076Z,40.99
2018-11-21T09:49:48.389Z,41.47
2018-11-21T09:54:51.697Z,41.60
2018-11-21T09:59:55.052Z,41.85
2018-11-21T10:04:58.340Z,41.81
2018-11-21T10:10:01.633Z,41.69
2018-11-21T10:15:06.464Z,41.71
2018-11-21T10:20:09.752Z,41.49
2018-11-21T10:25:13.039Z,41.65
2018-11-21T10:30:16.323Z,42.41
2018-11-21T10:35:19.675Z,42.60
2018-11-21T10:40:22.962Z,42.92
2018-11-21T10:45:26.248Z,43.33
2018-11-21T10:50:29.703Z,42.97
2018-11-21T10:55:32.980Z,42.83
2018-11-21T11:00:54.164Z,43.04
2018-11-21T11:06:16.737Z,43.23
2018-11-21T11:11:38.055Z,43.55
2018-11-21T11:16:58.871Z,43.44
2018-11-21T11:22:30.651Z,43.42
2018-11-21T11:27:51.939Z,43.31
2018-11-21T11:33:26.500Z,43.90
2018-11-21T11:38:57.818Z,43.69
2018-11-21T11:44:20.318Z,43.80
2018-11-21T11:49:41.420Z,43.66
2018-11-21T11:55:15.933Z,44.02
2018-11-21T12:00:37.085Z,44.41
2018-11-21T12:05:58.178Z,44.64
2018-11-21T12:11:19.261Z,44.20
2018-11-21T12:16:54.026Z,44.29
2018-11-21T12:22:28.636Z,44.32
2018-11-21T12:27:38.186Z,44.24
2018-11-21T12:32:59.581Z,43.99
2018-11-21T12:38:15.402Z,43.97
2018-11-21T12:43:33.969Z,43.82
2018-11-21T12:48:55.114Z,43.84
2018-11-21T12:54:17.573Z,43.74
2018-11-21T12:59:52.358Z,43.77
2018-11-21T13:05:17.934Z,43.73
2018-11-21T13:10:49.180Z,43.65
2018-11-21T13:16:09.286Z,43.59
2018-11-21T13:21:30.219Z,43.63
2018-11-21T13:26:47.775Z,43.66
2018-11-21T13:32:09.156Z,43.68
2018-11-21T13:37:30.655Z,43.73
2018-11-21T13:42:53.102Z,43.68
2018-11-21T13:48:14.449Z,43.66
2018-11-21T13:53:38.294Z,43.72
2018-11-21T13:58:41.634Z,43.66
2018-11-21T14:03:45.050Z,43.65
2018-11-21T14:08:48.457Z,43.41
2018-11-21T14:13:51.759Z,43.37
2018-11-21T14:18:55.166Z,43.25
2018-11-21T14:23:58.624Z,43.42
2018-11-21T14:29:01.987Z,43.36
